Metar Aviation Weather Data EGGD Bristol International

12°C Temp
12°C Dewpoint
100% Humidity
Temperature
10 KM/H
6 MPH
5 KTS
150°
South South
East

Wind Speed
Overcast
Conditions
Pressure 1020 (hPa) - 30.12 (in)
Visibility 6.2 (mi) - 10.0 (km)

Current Conditions
EGGD
Bristol International 6 km (3.2 mi)
Metar :EGGD 152120Z AUTO 15005KT 9999 OVC006 12/12 Q1020
Thu 15th November 21:20 pm

Airport
  Metar Aviation API Data Provided by https://www.checkwx.com/ PHP scripts by weather34.com ©2018